Time;durP1;ratioP1;P1;durP2;ratioP2;P2;SDS_P1;SDS_P2;PMS_P1;PMS_P2;Temp;Humidity;BMP_temperature;BMP_pressure;BME280_temperature;BME280_humidity;BME280_pressure;Samples;Min_cycle;Max_cycle;Signal;HPM_P1;HPM_P2
2023/01/04 00:01:39;;;;;;;8.35;5.30;;;9.10;99.90;;;;;;5052698;28;20021;-37
2023/01/04 00:04:05;;;;;;;7.03;4.90;;;9.10;99.90;;;;;;5052507;28;20475;-40
2023/01/04 00:06:31;;;;;;;7.05;4.90;;;9.10;99.90;;;;;;5052519;28;20028;-36
2023/01/04 00:08:57;;;;;;;7.25;4.70;;;9.20;99.90;;;;;;5052465;28;20483;-38
2023/01/04 00:11:23;;;;;;;6.75;5.20;;;9.10;99.90;;;;;;5052503;28;20499;-36
2023/01/04 00:13:51;;;;;;;7.63;5.25;;;9.10;99.90;;;;;;5052409;28;20025;-40
2023/01/04 00:16:22;;;;;;;6.25;5.05;;;9.10;99.90;;;;;;5051498;28;20029;-40
2023/01/04 00:18:49;;;;;;;8.02;5.45;;;9.10;99.90;;;;;;5052265;28;20025;-39
2023/01/04 00:21:20;;;;;;;7.68;5.45;;;9.10;99.90;;;;;;5052340;28;20029;-39
2023/01/04 00:23:48;;;;;;;7.47;5.15;;;9.10;99.90;;;;;;5052132;28;20062;-39
2023/01/04 00:26:34;;;;;;;7.38;4.80;;;9.10;99.90;;;;;;5051991;28;20568;-39
2023/01/04 00:29:03;;;;;;;7.63;5.25;;;9.10;99.90;;;;;;5052011;28;20028;-42
2023/01/04 00:31:29;;;;;;;6.78;4.45;;;9.10;99.90;;;;;;5051991;28;20032;-37
2023/01/04 00:33:56;;;;;;;6.18;4.70;;;9.10;99.90;;;;;;5051985;28;20013;-38
2023/01/04 00:36:23;;;;;;;6.32;4.43;;;9.00;99.90;;;;;;5051784;28;20098;-39
2023/01/04 00:39:05;;;;;;;7.20;4.30;;;9.10;99.90;;;;;;5051841;28;20517;-38
2023/01/04 00:41:46;;;;;;;6.50;4.45;;;9.10;99.90;;;;;;5051959;28;20414;-38
2023/01/04 00:44:12;;;;;;;6.25;4.72;;;9.10;99.90;;;;;;5051799;28;20067;-39
2023/01/04 00:46:38;;;;;;;6.18;4.10;;;9.10;99.90;;;;;;5051626;28;20079;-41
2023/01/04 00:49:05;;;;;;;5.95;4.50;;;9.10;99.90;;;;;;5051858;28;20094;-38
2023/01/04 00:51:32;;;;;;;6.38;4.05;;;9.00;99.90;;;;;;5051839;28;20025;-40
2023/01/04 00:54:00;;;;;;;5.95;4.50;;;9.00;99.90;;;;;;5051653;28;20029;-35
2023/01/04 00:56:29;;;;;;;6.55;4.53;;;9.10;99.90;;;;;;5051443;28;20029;-38
2023/01/04 00:58:57;;;;;;;5.47;4.10;;;9.10;99.90;;;;;;5051871;28;20428;-38
2023/01/04 01:01:23;;;;;;;4.65;3.83;;;9.10;99.90;;;;;;5051632;28;20025;-40
2023/01/04 01:03:57;;;;;;;4.53;3.78;;;9.10;99.90;;;;;;5051745;28;20276;-37
2023/01/04 01:06:25;;;;;;;6.00;4.00;;;9.10;99.90;;;;;;5051267;28;20032;-41
2023/01/04 01:08:51;;;;;;;4.93;3.80;;;9.10;99.90;;;;;;5051557;28;20100;-37
2023/01/04 01:11:17;;;;;;;4.40;3.63;;;9.10;99.90;;;;;;5051436;28;20044;-39
2023/01/04 01:13:44;;;;;;;4.72;3.80;;;9.10;99.90;;;;;;5051367;28;20043;-35
2023/01/04 01:16:14;;;;;;;4.60;3.70;;;9.10;99.90;;;;;;5051068;28;20092;-37
2023/01/04 01:18:42;;;;;;;5.63;3.88;;;9.10;99.90;;;;;;5051170;28;20549;-36
2023/01/04 01:21:10;;;;;;;5.13;3.50;;;9.10;99.90;;;;;;5051504;28;20039;-42
2023/01/04 01:23:35;;;;;;;5.00;3.40;;;9.10;99.90;;;;;;5051286;28;20025;-38
2023/01/04 01:26:03;;;;;;;5.15;3.38;;;9.10;99.90;;;;;;5050944;28;20021;-41
2023/01/04 01:28:32;;;;;;;4.40;3.50;;;9.10;99.90;;;;;;5050386;28;20029;-37
2023/01/04 01:30:58;;;;;;;5.35;3.42;;;9.10;99.90;;;;;;5051161;28;20061;-36
2023/01/04 01:33:25;;;;;;;3.80;3.40;;;9.10;99.90;;;;;;5051066;28;20112;-38
2023/01/04 01:35:51;;;;;;;3.97;3.40;;;9.00;99.90;;;;;;5050856;28;20040;-39
2023/01/04 01:38:17;;;;;;;5.18;3.45;;;9.00;99.90;;;;;;5051133;28;20025;-40
2023/01/04 01:40:44;;;;;;;3.78;3.08;;;9.00;99.90;;;;;;5051165;28;20613;-42
2023/01/04 01:43:21;;;;;;;4.13;3.22;;;9.00;99.90;;;;;;5051133;28;20120;-37
2023/01/04 01:45:51;;;;;;;3.95;3.00;;;9.00;99.90;;;;;;5050740;28;20029;-39
2023/01/04 01:48:22;;;;;;;4.10;3.25;;;9.00;99.90;;;;;;5050891;28;20025;-37
2023/01/04 01:50:56;;;;;;;5.20;3.20;;;9.00;99.90;;;;;;5051001;28;20036;-41
2023/01/04 01:53:24;;;;;;;4.35;3.15;;;9.00;99.90;;;;;;5051218;28;20025;-40
2023/01/04 01:55:50;;;;;;;3.70;3.00;;;9.00;99.90;;;;;;5050665;28;20131;-40
2023/01/04 01:58:26;;;;;;;3.78;2.95;;;9.00;99.90;;;;;;5051082;28;20110;-41
2023/01/04 02:00:52;;;;;;;3.58;3.00;;;9.00;99.90;;;;;;5051373;28;20023;-42
2023/01/04 02:03:20;;;;;;;3.80;3.10;;;8.90;99.90;;;;;;5050847;28;20021;-39
2023/01/04 02:05:50;;;;;;;4.13;3.28;;;8.90;99.90;;;;;;5050588;28;20033;-38
2023/01/04 02:08:17;;;;;;;4.00;3.00;;;8.90;99.90;;;;;;5050773;28;20112;-42
2023/01/04 02:10:43;;;;;;;4.40;3.20;;;8.90;99.90;;;;;;5050800;28;20025;-42
2023/01/04 02:13:12;;;;;;;3.90;2.83;;;8.90;99.90;;;;;;5051160;28;20021;-42
2023/01/04 02:16:01;;;;;;;3.17;2.65;;;8.90;99.90;;;;;;5050667;28;20029;-41
2023/01/04 02:18:33;;;;;;;4.68;3.17;;;8.90;99.90;;;;;;5050831;28;20100;-42
2023/01/04 02:21:12;;;;;;;3.60;2.72;;;8.90;99.90;;;;;;5050745;28;20036;-41
2023/01/04 02:23:58;;;;;;;5.60;3.28;;;8.90;99.90;;;;;;5050729;28;20025;-42
2023/01/04 02:27:02;;;;;;;3.45;2.78;;;8.90;99.90;;;;;;5050462;28;20032;-42
2023/01/04 02:30:04;;;;;;;4.15;3.08;;;8.90;99.90;;;;;;5008528;28;20022;-39
2023/01/04 02:33:01;;;;;;;3.80;2.83;;;8.90;99.90;;;;;;5029320;28;20033;-40
2023/01/04 02:35:45;;;;;;;3.80;2.92;;;8.90;99.90;;;;;;5050579;28;20094;-39
2023/01/04 02:38:29;;;;;;;3.72;2.85;;;8.90;99.90;;;;;;5050798;28;20021;-38
2023/01/04 02:41:04;;;;;;;3.42;2.67;;;8.90;99.90;;;;;;5054298;28;20104;-41
2023/01/04 02:46:33;;;;;;;3.03;2.60;;;8.90;99.90;;;;;;5053900;28;20106;-41
2023/01/04 02:51:44;;;;;;;2.85;2.55;;;8.80;99.90;;;;;;5054662;28;20048;-42
2023/01/04 02:54:17;;;;;;;3.70;2.75;;;8.90;99.90;;;;;;5053988;28;20498;-40
2023/01/04 02:57:04;;;;;;;2.60;2.35;;;8.80;99.90;;;;;;5053508;28;20474;-42
2023/01/04 02:59:47;;;;;;;3.50;2.80;;;8.80;99.90;;;;;;5053844;28;20060;-41
2023/01/04 03:08:37;;;;;;;4.13;2.60;;;8.80;99.90;;;;;;5053591;28;20083;-41
2023/01/04 03:12:30;;;;;;;2.97;2.28;;;8.80;99.90;;;;;;5053644;28;20021;-40
2023/01/04 03:14:23;;;;;;;3.30;2.40;;;8.80;99.90;;;;;;5053419;28;20083;-39
2023/01/04 03:16:50;;;;;;;2.60;2.40;;;8.80;99.90;;;;;;5053491;28;20013;-41
2023/01/04 03:19:50;;;;;;;3.38;2.50;;;8.80;99.90;;;;;;5053537;28;20029;-42
2023/01/04 03:22:05;;;;;;;3.13;2.60;;;8.80;99.90;;;;;;5053387;28;20123;-42
2023/01/04 03:36:23;;;;;;;2.75;1.98;;;8.70;99.90;;;;;;5053333;28;20027;-37
2023/01/04 03:50:54;;;;;;;2.97;2.22;;;8.80;99.90;;;;;;5051985;28;20091;-39
2023/01/04 03:53:20;;;;;;;2.20;1.77;;;8.80;99.90;;;;;;5052934;28;20024;-42
2023/01/04 03:55:47;;;;;;;2.75;2.15;;;8.80;99.90;;;;;;5052797;28;20059;-40
2023/01/04 03:58:13;;;;;;;2.78;2.20;;;8.80;99.90;;;;;;5052507;28;20490;-40
2023/01/04 04:00:39;;;;;;;2.70;2.17;;;8.80;99.90;;;;;;5052674;28;20028;-42
2023/01/04 04:03:11;;;;;;;2.30;1.80;;;8.80;99.90;;;;;;5052858;28;20032;-42
2023/01/04 04:08:27;;;;;;;2.13;1.67;;;8.80;99.90;;;;;;5052792;28;20510;-40
2023/01/04 04:13:49;;;;;;;2.85;1.92;;;8.80;99.90;;;;;;5052852;28;20113;-41
2023/01/04 04:16:15;;;;;;;2.55;1.83;;;8.80;99.90;;;;;;5052603;28;20406;-40
2023/01/04 04:18:41;;;;;;;2.08;1.77;;;8.80;99.90;;;;;;5052349;28;20113;-40
2023/01/04 04:21:07;;;;;;;4.57;2.03;;;8.80;99.90;;;;;;5052343;28;20445;-41
2023/01/04 04:23:33;;;;;;;1.50;1.40;;;8.80;99.90;;;;;;5052243;28;20036;-42
2023/01/04 04:25:59;;;;;;;2.42;1.73;;;8.80;99.90;;;;;;5051940;28;20044;-42
2023/01/04 04:28:24;;;;;;;2.33;1.60;;;8.80;99.90;;;;;;5052165;28;20434;-39
2023/01/04 04:30:50;;;;;;;2.78;1.70;;;8.90;99.90;;;;;;5052145;28;20546;-42
2023/01/04 04:33:16;;;;;;;2.75;1.58;;;8.90;99.90;;;;;;5052087;28;20021;-41
2023/01/04 04:35:41;;;;;;;2.60;1.67;;;8.90;99.90;;;;;;5052022;28;20096;-38
2023/01/04 04:38:07;;;;;;;2.05;1.60;;;8.90;99.90;;;;;;5052249;28;20067;-40
2023/01/04 04:43:17;;;;;;;2.15;1.60;;;8.90;99.90;;;;;;5052503;28;20455;-41
2023/01/04 04:45:42;;;;;;;2.20;1.42;;;8.90;99.90;;;;;;5050367;28;20487;-41
2023/01/04 04:48:08;;;;;;;3.65;1.52;;;8.90;99.90;;;;;;5051708;28;20017;-40
2023/01/04 04:50:33;;;;;;;3.95;1.60;;;8.90;99.90;;;;;;5051719;28;20047;-40
2023/01/04 04:52:59;;;;;;;1.58;1.30;;;8.90;99.90;;;;;;5051826;28;20497;-37
2023/01/04 04:55:25;;;;;;;1.98;1.30;;;8.90;99.90;;;;;;5051569;28;20402;-40
2023/01/04 04:57:50;;;;;;;3.13;1.40;;;8.90;99.90;;;;;;5051487;28;20037;-38
2023/01/04 05:00:16;;;;;;;1.55;1.30;;;8.90;99.90;;;;;;5051721;28;20025;-40
2023/01/04 05:02:42;;;;;;;2.00;1.48;;;8.90;99.90;;;;;;5051481;28;20037;-37
2023/01/04 05:05:08;;;;;;;2.85;1.65;;;8.90;99.90;;;;;;5051387;28;20040;-39
2023/01/04 05:07:33;;;;;;;1.60;1.38;;;8.90;99.90;;;;;;5051244;28;20020;-38
2023/01/04 05:09:59;;;;;;;1.75;1.17;;;8.90;99.90;;;;;;5051546;28;20021;-39
2023/01/04 05:15:09;;;;;;;1.50;1.23;;;8.90;99.90;;;;;;5051373;28;20556;-41
2023/01/04 05:17:35;;;;;;;2.45;1.25;;;8.90;99.90;;;;;;5051333;28;20047;-39
2023/01/04 05:20:01;;;;;;;1.80;1.30;;;8.90;99.90;;;;;;5051377;28;20479;-39
2023/01/04 05:22:27;;;;;;;1.60;1.25;;;8.90;99.90;;;;;;5050001;28;20098;-41
2023/01/04 05:24:52;;;;;;;2.38;1.23;;;8.90;99.90;;;;;;5051213;28;20064;-39
2023/01/04 05:27:18;;;;;;;2.28;1.40;;;8.90;99.90;;;;;;5051456;28;20025;-36
2023/01/04 05:32:28;;;;;;;2.15;1.40;;;8.90;99.90;;;;;;5051579;28;20090;-38
2023/01/04 05:34:53;;;;;;;1.70;1.27;;;8.90;99.90;;;;;;5051236;28;20029;-41
2023/01/04 05:37:19;;;;;;;3.40;1.85;;;8.90;99.90;;;;;;5050985;28;20039;-36
2023/01/04 05:39:44;;;;;;;1.90;1.60;;;8.90;99.90;;;;;;5051228;28;20031;-39
2023/01/04 05:42:25;;;;;;;3.80;1.50;;;8.90;99.90;;;;;;5051078;28;20071;-41
2023/01/04 05:44:58;;;;;;;2.25;1.42;;;9.00;99.90;;;;;;5051350;28;20395;-41
2023/01/04 05:47:24;;;;;;;3.40;1.20;;;8.90;99.90;;;;;;5050831;28;20047;-36
2023/01/04 05:49:50;;;;;;;1.70;1.38;;;8.90;99.90;;;;;;5051104;28;20187;-39
2023/01/04 05:52:17;;;;;;;2.97;1.48;;;8.90;99.90;;;;;;5051122;28;20391;-39
2023/01/04 05:54:43;;;;;;;1.67;1.27;;;8.90;99.90;;;;;;5050780;28;20032;-34
2023/01/04 05:57:09;;;;;;;1.70;1.40;;;8.90;99.90;;;;;;5050387;28;20372;-35
2023/01/04 05:59:35;;;;;;;1.60;1.38;;;8.90;99.90;;;;;;5050930;28;20083;-39
2023/01/04 06:02:01;;;;;;;1.70;1.20;;;8.90;99.90;;;;;;5050952;28;20021;-39
2023/01/04 06:04:26;;;;;;;1.90;1.27;;;8.90;99.90;;;;;;5051337;28;20110;-36
2023/01/04 06:06:53;;;;;;;2.45;1.48;;;8.90;99.90;;;;;;5050405;28;20466;-40
2023/01/04 06:09:19;;;;;;;2.58;1.60;;;8.90;99.90;;;;;;5049493;28;20057;-41
2023/01/04 06:11:44;;;;;;;4.50;1.65;;;8.90;99.90;;;;;;5050872;28;20020;-38
2023/01/04 06:14:10;;;;;;;1.52;1.38;;;8.90;99.90;;;;;;5052810;28;20471;-34
2023/01/04 06:16:36;;;;;;;2.50;1.45;;;8.90;99.90;;;;;;5054466;28;20029;-38
2023/01/04 06:19:01;;;;;;;3.03;1.75;;;8.90;99.90;;;;;;5054600;28;20045;-38
2023/01/04 06:21:27;;;;;;;2.50;1.65;;;8.90;99.90;;;;;;5054543;28;20064;-36
2023/01/04 06:23:53;;;;;;;3.85;1.60;;;8.90;99.90;;;;;;5054511;28;20029;-37
2023/01/04 06:26:19;;;;;;;2.65;1.23;;;8.90;99.90;;;;;;5054360;28;20021;-41
2023/01/04 06:28:45;;;;;;;2.00;1.38;;;8.90;99.90;;;;;;5054480;28;20121;-41
2023/01/04 06:31:11;;;;;;;2.13;1.40;;;8.90;99.90;;;;;;5054520;28;20104;-40
2023/01/04 06:33:38;;;;;;;1.75;1.38;;;8.90;99.90;;;;;;5054435;28;20027;-39
2023/01/04 06:36:05;;;;;;;1.45;1.15;;;8.90;99.90;;;;;;5054070;28;20064;-37
2023/01/04 06:38:31;;;;;;;2.00;1.30;;;8.90;99.90;;;;;;5054251;28;20433;-37
2023/01/04 06:40:56;;;;;;;2.53;1.40;;;8.90;99.90;;;;;;5054358;28;20094;-37
2023/01/04 06:43:22;;;;;;;1.83;1.13;;;8.90;99.90;;;;;;5054389;28;20025;-41
2023/01/04 06:45:48;;;;;;;1.90;1.33;;;8.90;99.90;;;;;;5053979;28;20394;-40
2023/01/04 06:48:14;;;;;;;2.08;1.20;;;8.90;99.90;;;;;;5054091;28;20108;-39
2023/01/04 06:50:40;;;;;;;1.45;1.02;;;8.90;99.90;;;;;;5054023;28;20028;-38
2023/01/04 06:53:05;;;;;;;1.58;1.10;;;8.90;99.90;;;;;;5054071;28;20032;-41
2023/01/04 06:55:31;;;;;;;1.90;1.40;;;8.90;99.90;;;;;;5053867;28;20121;-40
2023/01/04 06:57:57;;;;;;;1.90;1.25;;;8.90;99.90;;;;;;5053724;28;20078;-41
2023/01/04 07:00:23;;;;;;;2.03;1.10;;;8.90;99.90;;;;;;5053898;28;20486;-34
2023/01/04 07:02:49;;;;;;;1.40;1.02;;;8.90;99.90;;;;;;5053887;28;20479;-41
2023/01/04 07:05:14;;;;;;;1.73;1.08;;;8.90;99.90;;;;;;5053938;28;20033;-41
2023/01/04 07:07:40;;;;;;;1.60;1.00;;;8.90;99.90;;;;;;5054519;28;20052;-42
2023/01/04 07:10:06;;;;;;;1.60;0.95;;;8.90;99.90;;;;;;5052472;28;20100;-40
2023/01/04 07:12:32;;;;;;;3.45;1.00;;;8.90;99.90;;;;;;5053728;28;20029;-40
2023/01/04 07:14:58;;;;;;;1.20;0.88;;;8.90;99.90;;;;;;5054028;28;20072;-40
2023/01/04 07:17:23;;;;;;;0.90;0.75;;;8.90;99.90;;;;;;5053442;28;20032;-38
2023/01/04 07:19:49;;;;;;;3.33;0.90;;;8.90;99.90;;;;;;5053516;28;20025;-36
2023/01/04 07:22:15;;;;;;;1.40;0.80;;;8.90;99.90;;;;;;5053535;28;20385;-36
2023/01/04 07:24:42;;;;;;;1.92;0.98;;;8.90;99.90;;;;;;5052533;28;20033;-40
2023/01/04 07:27:09;;;;;;;1.30;0.90;;;8.90;99.90;;;;;;5052863;28;20100;-41
2023/01/04 07:29:34;;;;;;;3.90;0.95;;;8.90;99.90;;;;;;5053384;28;20086;-39
2023/01/04 07:32:00;;;;;;;2.78;0.80;;;8.90;99.90;;;;;;5053351;28;20413;-39
2023/01/04 07:34:27;;;;;;;2.58;0.80;;;8.90;99.90;;;;;;5053206;28;20071;-36
2023/01/04 07:36:52;;;;;;;4.97;1.30;;;8.90;99.90;;;;;;5052907;28;20040;-38
2023/01/04 07:39:18;;;;;;;2.63;0.85;;;8.80;99.90;;;;;;5051964;28;20029;-41
2023/01/04 07:41:45;;;;;;;2.92;1.17;;;8.80;99.90;;;;;;5053288;28;20028;-42
2023/01/04 07:44:12;;;;;;;3.60;1.25;;;8.70;99.90;;;;;;5053069;28;20025;-40
2023/01/04 07:46:38;;;;;;;2.70;1.10;;;8.70;99.90;;;;;;5052872;28;20029;-42
2023/01/04 07:49:04;;;;;;;1.63;0.82;;;8.70;99.90;;;;;;5053302;28;20025;-42
2023/01/04 07:51:31;;;;;;;3.38;1.10;;;8.70;99.90;;;;;;5053091;28;20027;-41
2023/01/04 07:53:58;;;;;;;6.35;1.00;;;8.70;99.90;;;;;;5053028;28;20021;-43
2023/01/04 07:56:23;;;;;;;5.13;1.13;;;8.70;99.90;;;;;;5051362;28;20082;-39
2023/01/04 07:58:49;;;;;;;3.67;1.10;;;8.70;99.90;;;;;;5052387;28;20460;-40
2023/01/04 08:01:17;;;;;;;3.03;1.30;;;8.70;99.90;;;;;;5053037;28;20489;-41
2023/01/04 08:03:46;;;;;;;1.77;1.00;;;8.70;99.90;;;;;;5052858;28;20096;-43
2023/01/04 08:06:13;;;;;;;2.28;1.00;;;8.70;99.90;;;;;;5050977;28;20025;-41
2023/01/04 08:08:39;;;;;;;4.53;1.10;;;8.70;99.90;;;;;;5053255;28;20048;-38
2023/01/04 08:11:08;;;;;;;2.90;0.90;;;8.70;99.90;;;;;;5053056;28;20454;-43
2023/01/04 08:13:33;;;;;;;4.15;1.05;;;8.70;99.90;;;;;;5052726;28;20399;-43
2023/01/04 08:15:59;;;;;;;3.13;0.90;;;8.70;99.90;;;;;;5052325;28;20562;-43
2023/01/04 08:18:25;;;;;;;2.20;0.90;;;8.80;99.90;;;;;;5052399;28;20123;-43
2023/01/04 08:21:07;;;;;;;3.00;0.90;;;8.70;99.90;;;;;;5052650;28;20120;-43
2023/01/04 08:23:34;;;;;;;3.38;1.10;;;8.70;99.90;;;;;;5052407;28;20398;-43
2023/01/04 08:26:08;;;;;;;1.23;0.90;;;8.70;99.90;;;;;;5051856;28;20025;-40
2023/01/04 08:28:34;;;;;;;6.38;1.20;;;8.70;99.90;;;;;;5052238;28;20044;-41
2023/01/04 08:31:07;;;;;;;3.97;1.08;;;8.70;99.90;;;;;;5052219;28;20027;-44
2023/01/04 08:33:34;;;;;;;2.92;0.90;;;8.70;99.90;;;;;;5052097;28;20056;-42
2023/01/04 08:36:11;;;;;;;2.15;1.10;;;8.70;99.90;;;;;;5052185;28;20078;-43
2023/01/04 08:38:37;;;;;;;1.83;0.98;;;8.70;99.90;;;;;;5052787;28;20033;-41
2023/01/04 08:41:03;;;;;;;1.60;1.00;;;8.70;99.90;;;;;;5052077;28;20083;-41
2023/01/04 08:43:29;;;;;;;2.65;1.02;;;8.70;99.90;;;;;;5052330;28;20387;-40
2023/01/04 08:45:54;;;;;;;2.65;0.90;;;8.70;99.90;;;;;;5051700;28;20074;-39
2023/01/04 08:48:20;;;;;;;4.53;0.88;;;8.70;99.90;;;;;;5051854;28;20021;-42
2023/01/04 08:50:46;;;;;;;3.42;0.90;;;8.70;99.90;;;;;;5051834;28;20379;-37
2023/01/04 08:53:11;;;;;;;2.97;1.00;;;8.70;99.90;;;;;;5051735;28;20025;-39
2023/01/04 08:55:37;;;;;;;3.03;1.00;;;8.70;99.90;;;;;;5051747;28;20033;-40
2023/01/04 08:58:03;;;;;;;2.25;1.10;;;8.70;99.90;;;;;;5051243;28;20411;-41
2023/01/04 09:00:28;;;;;;;3.00;1.00;;;8.70;99.90;;;;;;5051685;28;20029;-41
2023/01/04 09:02:54;;;;;;;1.60;0.95;;;8.70;99.90;;;;;;5051725;28;20032;-40
2023/01/04 09:05:20;;;;;;;2.55;1.20;;;8.70;99.90;;;;;;5051459;28;20483;-39
2023/01/04 09:07:46;;;;;;;3.63;1.10;;;8.70;99.90;;;;;;5051339;28;20024;-41
2023/01/04 09:10:11;;;;;;;3.33;1.30;;;8.70;99.90;;;;;;5051542;28;20364;-40
2023/01/04 09:12:37;;;;;;;6.00;1.20;;;8.70;99.90;;;;;;5051574;28;20339;-42
2023/01/04 09:15:03;;;;;;;7.43;1.10;;;8.70;99.90;;;;;;5051401;28;20721;-43
2023/01/04 09:17:29;;;;;;;3.90;1.00;;;8.70;99.90;;;;;;5051113;28;20495;-41
2023/01/04 09:19:54;;;;;;;5.63;1.33;;;8.70;99.90;;;;;;5051358;28;20075;-41
2023/01/04 09:22:20;;;;;;;5.57;1.50;;;8.70;99.90;;;;;;5052016;28;20035;-40
2023/01/04 09:24:46;;;;;;;4.40;1.20;;;8.70;99.90;;;;;;5051252;28;20108;-43
2023/01/04 09:27:11;;;;;;;7.57;1.40;;;8.70;99.90;;;;;;5050902;28;20052;-43
2023/01/04 09:29:37;;;;;;;4.57;1.20;;;8.70;99.90;;;;;;5051191;28;20017;-42
2023/01/04 09:32:02;;;;;;;2.08;0.95;;;8.70;99.90;;;;;;5051553;28;20075;-40
2023/01/04 09:34:28;;;;;;;3.10;1.20;;;8.70;99.90;;;;;;5051197;28;20040;-40
2023/01/04 09:36:54;;;;;;;3.38;1.20;;;8.70;99.90;;;;;;5051334;28;20495;-41
2023/01/04 09:39:20;;;;;;;2.75;1.10;;;8.70;99.90;;;;;;5052287;28;20043;-41
2023/01/04 09:41:54;;;;;;;3.83;1.30;;;8.70;99.90;;;;;;5051506;28;20546;-43
2023/01/04 09:44:33;;;;;;;4.07;1.50;;;8.70;99.90;;;;;;5051538;28;20048;-43
2023/01/04 09:47:04;;;;;;;3.00;1.38;;;8.70;99.90;;;;;;5050802;28;20029;-42
2023/01/04 09:49:30;;;;;;;10.48;1.52;;;8.70;99.90;;;;;;5054559;28;20024;-43
2023/01/04 09:52:02;;;;;;;15.18;2.85;;;8.70;99.90;;;;;;5055274;28;20029;-41
2023/01/04 09:54:48;;;;;;;6.35;1.95;;;8.70;99.90;;;;;;5055873;28;20102;-40
2023/01/04 09:57:54;;;;;;;8.70;1.48;;;8.70;99.90;;;;;;5054776;28;20099;-41
2023/01/04 10:00:34;;;;;;;5.65;1.45;;;8.70;99.90;;;;;;5049415;28;20105;-39
2023/01/04 10:03:13;;;;;;;4.97;1.90;;;8.70;99.90;;;;;;5054954;28;20025;-39
2023/01/04 10:05:40;;;;;;;3.35;1.40;;;8.70;99.90;;;;;;5055050;28;20033;-39
2023/01/04 10:08:16;;;;;;;5.00;1.70;;;8.60;99.90;;;;;;5055107;28;20040;-38
2023/01/04 10:10:44;;;;;;;5.30;1.52;;;8.60;99.90;;;;;;5055282;28;20027;-35
2023/01/04 10:13:25;;;;;;;4.43;1.50;;;8.70;99.90;;;;;;5055279;28;20017;-36
2023/01/04 10:16:26;;;;;;;3.28;1.33;;;8.70;99.90;;;;;;5054919;28;20104;-38
2023/01/04 10:19:05;;;;;;;3.95;1.80;;;8.70;99.90;;;;;;5032271;28;20712;-40
2023/01/04 10:21:42;;;;;;;4.32;1.90;;;8.70;99.90;;;;;;5051881;28;20123;-40
2023/01/04 10:24:27;;;;;;;5.15;1.83;;;8.70;99.90;;;;;;5054677;28;20345;-38
2023/01/04 10:26:58;;;;;;;;;;;8.70;99.90;;;;;;5054805;28;20020;-42
2023/01/04 10:29:53;;;;;;;4.40;1.80;;;8.70;99.90;;;;;;5054571;28;19905;-39
2023/01/04 10:32:41;;;;;;;3.58;1.50;;;8.70;99.90;;;;;;5045852;28;20427;-36
2023/01/04 10:35:19;;;;;;;2.95;1.38;;;8.70;99.90;;;;;;5054514;28;20410;-40
2023/01/04 10:37:50;;;;;;;2.83;1.40;;;8.70;99.90;;;;;;5054147;28;20025;-40
2023/01/04 10:40:17;;;;;;;2.53;1.20;;;8.70;99.90;;;;;;5054451;28;20506;-39
2023/01/04 10:43:06;;;;;;;1.90;1.20;;;8.70;99.90;;;;;;5054822;28;20024;-36
2023/01/04 10:46:01;;;;;;;3.80;1.52;;;8.70;99.90;;;;;;5054136;28;20051;-37
2023/01/04 10:48:53;;;;;;;2.83;1.38;;;8.70;99.90;;;;;;5045455;28;20040;-37
2023/01/04 10:51:38;;;;;;;2.70;1.30;;;8.80;99.90;;;;;;5054434;28;20099;-40
2023/01/04 10:54:44;;;;;;;2.13;1.20;;;8.80;99.90;;;;;;5054110;28;20064;-39
2023/01/04 10:57:17;;;;;;;4.40;1.10;;;8.80;99.90;;;;;;5052105;28;20166;-40
2023/01/04 10:59:58;;;;;;;2.85;1.25;;;8.80;99.90;;;;;;5053729;28;20029;-40
2023/01/04 11:02:32;;;;;;;2.38;1.30;;;8.80;99.90;;;;;;5054167;28;20021;-42
2023/01/04 11:05:02;;;;;;;2.03;1.10;;;8.80;99.90;;;;;;5053799;28;20033;-41
2023/01/04 11:07:44;;;;;;;1.60;1.00;;;8.80;99.90;;;;;;5053818;28;20021;-43
2023/01/04 11:10:41;;;;;;;2.47;1.27;;;8.80;99.90;;;;;;5054976;28;20032;-42
2023/01/04 11:13:07;;;;;;;3.60;1.10;;;8.80;99.90;;;;;;5053252;28;20040;-40
2023/01/04 11:15:33;;;;;;;3.20;1.20;;;8.80;99.90;;;;;;5054082;28;20029;-39
2023/01/04 11:18:04;;;;;;;3.08;1.30;;;8.80;99.90;;;;;;5053520;28;20498;-41
2023/01/04 11:20:31;;;;;;;2.60;1.10;;;8.80;99.90;;;;;;5054308;28;20021;-41
2023/01/04 11:23:16;;;;;;;2.10;1.10;;;8.80;99.90;;;;;;5053721;28;20025;-42
2023/01/04 11:25:56;;;;;;;1.25;0.90;;;8.80;99.90;;;;;;5053790;28;20040;-40
2023/01/04 11:28:39;;;;;;;3.13;1.20;;;8.80;99.90;;;;;;5053774;28;20078;-37
2023/01/04 11:31:08;;;;;;;1.60;1.10;;;8.80;99.90;;;;;;5054285;28;20112;-40
2023/01/04 11:34:03;;;;;;;2.97;1.10;;;8.80;99.90;;;;;;5053842;28;20017;-38
2023/01/04 11:36:33;;;;;;;2.50;1.60;;;8.80;99.90;;;;;;5044535;28;20462;-40
2023/01/04 11:38:59;;;;;;;3.78;1.25;;;8.80;99.90;;;;;;5053291;28;20071;-35
2023/01/04 11:41:26;;;;;;;2.42;1.50;;;8.80;99.90;;;;;;5053610;28;20028;-37
2023/01/04 11:44:02;;;;;;;2.20;1.20;;;8.80;99.90;;;;;;5053975;28;20033;-38
2023/01/04 11:46:29;;;;;;;1.60;1.20;;;8.80;99.90;;;;;;5053006;28;20032;-41
2023/01/04 11:48:56;;;;;;;2.30;1.45;;;8.80;99.90;;;;;;5053268;28;20502;-36
2023/01/04 11:51:27;;;;;;;3.35;1.70;;;8.80;99.90;;;;;;5053354;28;20479;-40
2023/01/04 11:54:12;;;;;;;5.53;1.60;;;8.80;99.90;;;;;;5052977;28;20028;-42
2023/01/04 11:56:39;;;;;;;2.55;1.50;;;8.80;99.90;;;;;;5052804;28;20082;-41
2023/01/04 11:59:07;;;;;;;3.38;1.17;;;8.90;99.90;;;;;;5052900;28;20025;-41
2023/01/04 12:01:36;;;;;;;2.30;1.17;;;8.90;99.90;;;;;;5053004;28;20380;-38
2023/01/04 12:04:03;;;;;;;5.10;1.10;;;8.80;99.90;;;;;;5053596;28;20025;-38
2023/01/04 12:07:00;;;;;;;2.42;1.30;;;8.90;99.90;;;;;;5052688;28;20033;-39
2023/01/04 12:09:29;;;;;;;2.63;1.20;;;8.90;99.90;;;;;;5044210;28;20058;-39
2023/01/04 12:11:57;;;;;;;2.90;1.25;;;8.90;99.90;;;;;;5051889;28;20092;-42
2023/01/04 12:14:25;;;;;;;2.17;1.38;;;8.90;99.90;;;;;;5053006;28;20021;-39
2023/01/04 12:17:02;;;;;;;2.85;1.10;;;8.90;99.90;;;;;;5052919;28;20025;-38
2023/01/04 12:19:29;;;;;;;2.20;0.90;;;8.90;99.90;;;;;;5052717;28;20021;-42
2023/01/04 12:21:58;;;;;;;3.05;1.15;;;8.90;99.90;;;;;;5052370;28;20017;-42
2023/01/04 12:24:33;;;;;;;2.17;1.13;;;8.90;99.90;;;;;;5052587;28;20070;-37
2023/01/04 12:26:59;;;;;;;1.90;1.10;;;8.90;99.90;;;;;;5052171;28;20028;-40
2023/01/04 12:29:40;;;;;;;2.05;1.27;;;8.90;99.90;;;;;;5052349;28;20669;-42
2023/01/04 12:32:26;;;;;;;2.92;1.30;;;8.90;99.90;;;;;;5052826;28;20017;-41
2023/01/04 12:34:53;;;;;;;2.67;1.05;;;8.90;99.90;;;;;;5048775;28;20063;-40
2023/01/04 12:37:39;;;;;;;1.98;1.05;;;8.90;99.90;;;;;;5051937;28;20050;-38
2023/01/04 12:40:42;;;;;;;1.55;0.88;;;8.90;99.90;;;;;;5052127;28;20025;-39
2023/01/04 12:43:24;;;;;;;2.05;1.27;;;8.90;99.90;;;;;;5052403;28;20029;-41
2023/01/04 12:49:25;;;;;;;2.50;1.10;;;8.90;99.90;;;;;;5052739;28;20036;-38
2023/01/04 12:52:08;;;;;;;1.75;1.00;;;8.90;99.90;;;;;;5051796;28;20506;-39
2023/01/04 12:54:45;;;;;;;1.70;1.02;;;8.90;99.90;;;;;;5051711;28;20033;-43
2023/01/04 12:57:33;;;;;;;4.35;1.17;;;8.90;99.90;;;;;;5051764;28;20033;-42
2023/01/04 13:00:12;;;;;;;2.65;1.20;;;8.90;99.90;;;;;;5051827;28;20025;-37
2023/01/04 13:02:46;;;;;;;2.67;1.00;;;8.90;99.90;;;;;;5051714;28;20028;-40
2023/01/04 13:05:17;;;;;;;3.33;1.30;;;8.90;99.90;;;;;;5051717;28;20033;-41
2023/01/04 13:07:54;;;;;;;1.88;0.93;;;8.90;99.90;;;;;;5051311;28;20064;-40
2023/01/04 13:10:36;;;;;;;1.63;0.77;;;8.90;99.90;;;;;;5051583;28;20036;-42
2023/01/04 13:13:33;;;;;;;2.38;1.08;;;8.90;99.90;;;;;;5051530;28;20103;-43
2023/01/04 13:16:19;;;;;;;3.42;1.15;;;8.90;99.90;;;;;;5051268;28;20104;-43
2023/01/04 13:19:00;;;;;;;2.60;1.08;;;8.90;99.90;;;;;;5051394;28;20028;-41
2023/01/04 13:21:44;;;;;;;2.03;0.93;;;8.90;99.90;;;;;;5051392;28;20092;-39
2023/01/04 13:24:29;;;;;;;2.45;1.00;;;8.90;99.90;;;;;;5051509;28;20112;-40
2023/01/04 13:26:55;;;;;;;2.28;0.98;;;8.90;99.90;;;;;;5051104;28;20382;-37
2023/01/04 13:29:26;;;;;;;1.50;0.90;;;9.00;99.90;;;;;;5051237;28;20029;-42
2023/01/04 13:32:02;;;;;;;3.38;0.82;;;8.90;99.90;;;;;;5051319;28;20048;-41
2023/01/04 13:34:48;;;;;;;1.02;0.70;;;8.90;99.90;;;;;;5051336;28;20487;-42
2023/01/04 13:37:18;;;;;;;3.47;1.00;;;8.90;99.90;;;;;;5051066;28;20032;-40
2023/01/04 13:39:58;;;;;;;1.65;0.82;;;8.90;99.90;;;;;;5051234;28;20029;-39
2023/01/04 13:42:31;;;;;;;2.50;1.00;;;8.90;99.90;;;;;;5051239;28;20485;-39
2023/01/04 13:45:25;;;;;;;2.00;0.98;;;8.90;99.90;;;;;;5051090;28;20017;-42
2023/01/04 13:47:56;;;;;;;2.63;1.05;;;8.90;99.90;;;;;;5050928;28;20022;-41
2023/01/04 13:50:30;;;;;;;1.50;0.90;;;9.00;99.90;;;;;;5051235;28;20510;-38
2023/01/04 13:52:56;;;;;;;4.25;0.82;;;8.90;99.90;;;;;;5050992;28;20017;-38
2023/01/04 13:55:33;;;;;;;3.92;1.00;;;9.00;99.90;;;;;;5050862;28;20183;-39
2023/01/04 13:58:04;;;;;;;2.25;1.45;;;9.00;99.90;;;;;;5050560;28;20312;-39
2023/01/04 14:00:47;;;;;;;1.52;0.85;;;9.00;99.90;;;;;;5050906;28;20398;-40
2023/01/04 14:03:21;;;;;;;2.50;1.00;;;9.00;99.90;;;;;;5051048;28;20112;-42
2023/01/04 14:05:49;;;;;;;1.50;0.82;;;9.00;99.90;;;;;;5051070;28;20021;-40
2023/01/04 14:08:40;;;;;;;1.30;0.90;;;9.00;99.90;;;;;;5050905;28;20033;-38
2023/01/04 14:14:36;;;;;;;1.67;0.90;;;9.00;99.90;;;;;;5051385;28;20391;-40
2023/01/04 14:17:19;;;;;;;1.48;0.93;;;9.00;99.90;;;;;;5032077;28;20483;-38